Time;durP1;ratioP1;P1;durP2;ratioP2;P2;SDS_P1;SDS_P2;PMS_P1;PMS_P2;Temp;Humidity;BMP_temperature;BMP_pressure;BME280_temperature;BME280_humidity;BME280_pressure;Samples;Min_cycle;Max_cycle;Signal;HPM_P1;HPM_P2
2021/11/10 00:01:50;;;;;;;2.03;1.65;;;;;;;10.04;59.14;101647.59;5052049;28;20051;-37
2021/11/10 00:04:17;;;;;;;2.63;2.08;;;;;;;9.96;58.72;101650.19;5051660;28;20485;-38
2021/11/10 00:06:42;;;;;;;2.20;1.88;;;;;;;9.96;58.30;101635.06;5051255;28;20032;-38
2021/11/10 00:09:08;;;;;;;2.65;1.90;;;;;;;10.02;58.06;101651.41;5051727;28;20021;-37
2021/11/10 00:11:33;;;;;;;3.00;2.20;;;;;;;9.97;57.71;101652.69;5051331;28;20033;-38
2021/11/10 00:13:59;;;;;;;2.72;2.20;;;;;;;9.94;57.09;101662.81;5051241;28;20129;-37
2021/11/10 00:16:24;;;;;;;3.53;2.45;;;;;;;10.02;56.97;101678.84;5051243;28;20025;-37
2021/11/10 00:18:51;;;;;;;3.45;2.55;;;;;;;9.87;57.49;101669.72;5051755;28;20033;-38
2021/11/10 00:21:20;;;;;;;3.78;2.85;;;;;;;9.87;57.71;101661.75;5051342;28;20033;-37
2021/11/10 00:23:45;;;;;;;4.60;2.90;;;;;;;9.78;57.08;101652.84;5051317;28;20033;-38
2021/11/10 00:26:11;;;;;;;4.97;3.53;;;;;;;9.66;57.31;101668.19;5051397;28;20074;-38
2021/11/10 00:28:36;;;;;;;4.70;3.60;;;;;;;9.56;56.53;101675.41;5051391;28;20025;-38
2021/11/10 00:31:02;;;;;;;5.53;3.75;;;;;;;9.53;56.57;101668.53;5051444;28;20032;-37
2021/11/10 00:33:27;;;;;;;4.82;3.35;;;;;;;9.69;55.66;101662.56;5051126;28;20029;-38
2021/11/10 00:35:53;;;;;;;5.10;3.78;;;;;;;9.62;55.76;101669.47;5051423;28;20033;-37
2021/11/10 00:38:18;;;;;;;4.68;3.47;;;;;;;9.55;56.38;101660.41;5051516;28;20042;-37
2021/11/10 00:40:44;;;;;;;5.22;3.65;;;;;;;9.54;56.27;101656.09;5051199;28;20029;-38
2021/11/10 00:43:09;;;;;;;6.80;3.95;;;;;;;9.63;55.83;101667.63;5050240;28;20033;-37
2021/11/10 00:45:35;;;;;;;5.10;3.92;;;;;;;9.53;56.15;101665.06;5051123;28;20033;-38
2021/11/10 00:48:00;;;;;;;5.57;3.80;;;;;;;9.63;55.74;101673.78;5051092;28;20134;-38
2021/11/10 00:50:26;;;;;;;5.45;3.80;;;;;;;9.64;55.80;101672.81;5051022;28;20135;-38
2021/11/10 00:52:51;;;;;;;5.63;3.72;;;;;;;9.64;55.48;101664.84;5051099;28;20495;-38
2021/11/10 00:55:17;;;;;;;5.45;3.88;;;;;;;9.50;56.19;101662.69;5051189;28;20017;-37
2021/11/10 00:57:42;;;;;;;6.40;3.80;;;;;;;9.57;55.83;101661.94;5050790;28;20486;-37
2021/11/10 01:00:08;;;;;;;5.30;3.97;;;;;;;9.54;55.78;101675.53;5051093;28;20025;-37
2021/11/10 01:02:34;;;;;;;6.22;4.45;;;;;;;9.29;56.62;101663.81;5050883;28;20460;-37
2021/11/10 01:05:00;;;;;;;5.65;4.00;;;;;;;9.23;56.66;101674.16;5050658;28;20025;-37
2021/11/10 01:07:25;;;;;;;6.70;4.10;;;;;;;9.19;57.02;101668.31;5050701;28;20485;-37
2021/11/10 01:09:57;;;;;;;6.25;3.95;;;;;;;8.93;57.20;101645.09;5050588;28;20118;-37
2021/11/10 01:12:23;;;;;;;5.40;3.95;;;;;;;9.31;56.13;101668.94;5050749;28;20072;-37
2021/11/10 01:14:48;;;;;;;6.18;3.80;;;;;;;9.19;56.31;101673.63;5050610;28;20425;-38
2021/11/10 01:17:14;;;;;;;5.32;3.92;;;;;;;9.07;57.07;101680.13;5050522;28;20036;-37
2021/11/10 01:19:39;;;;;;;4.95;3.78;;;;;;;9.10;56.89;101679.81;5050454;28;20036;-39
2021/11/10 01:22:05;;;;;;;6.10;3.72;;;;;;;9.13;56.88;101679.53;5050377;28;20028;-38
2021/11/10 01:24:30;;;;;;;6.22;3.80;;;;;;;9.10;57.21;101680.66;5050211;28;20101;-37
2021/11/10 01:26:56;;;;;;;4.70;3.80;;;;;;;9.18;56.47;101678.09;5050425;28;20079;-38
2021/11/10 01:29:21;;;;;;;5.90;3.90;;;;;;;9.21;56.00;101690.25;5050970;28;20032;-37
2021/11/10 01:31:47;;;;;;;5.97;3.60;;;;;;;9.19;56.80;101686.91;5050576;28;20020;-37
2021/11/10 01:34:12;;;;;;;5.13;3.90;;;;;;;9.22;56.36;101691.94;5050652;28;20419;-37
2021/11/10 01:36:38;;;;;;;6.93;4.10;;;;;;;9.22;56.42;101686.63;5050883;28;20029;-37
2021/11/10 01:39:04;;;;;;;4.95;3.53;;;;;;;9.02;56.82;101693.00;5050587;28;20028;-37
2021/11/10 01:41:31;;;;;;;5.47;3.78;;;;;;;9.00;56.98;101694.00;5050494;28;20036;-37
2021/11/10 01:43:56;;;;;;;6.50;3.67;;;;;;;9.01;56.78;101692.16;5050526;28;20135;-38
2021/11/10 01:46:22;;;;;;;4.82;3.63;;;;;;;8.85;56.92;101681.31;5050870;28;20408;-38
2021/11/10 01:48:47;;;;;;;5.30;3.70;;;;;;;8.92;56.88;101685.06;5050853;28;20025;-38
2021/11/10 01:51:13;;;;;;;6.05;3.67;;;;;;;8.85;57.22;101682.13;5050513;28;20064;-38
2021/11/10 01:53:38;;;;;;;5.00;3.90;;;;;;;8.94;56.80;101683.94;5050126;28;20025;-38
2021/11/10 01:56:04;;;;;;;4.72;3.53;;;;;;;8.88;56.75;101689.81;5050606;28;20025;-38
2021/11/10 01:58:29;;;;;;;4.70;3.53;;;;;;;8.84;56.26;101688.44;5049428;28;20025;-38
2021/11/10 02:00:55;;;;;;;4.80;3.53;;;;;;;8.71;57.06;101688.75;5050498;28;20040;-37
2021/11/10 02:03:20;;;;;;;5.68;3.55;;;;;;;8.73;56.96;101700.06;5050473;28;20032;-38
2021/11/10 02:05:46;;;;;;;6.38;3.60;;;;;;;8.96;56.47;101702.38;5050629;28;20025;-38
2021/11/10 02:08:12;;;;;;;4.55;3.40;;;;;;;8.89;56.02;101698.63;5050218;28;20031;-37
2021/11/10 02:10:37;;;;;;;5.63;3.63;;;;;;;8.79;56.07;101693.34;5050483;28;20383;-38
2021/11/10 02:13:05;;;;;;;4.68;3.53;;;;;;;8.79;56.12;101691.53;5050667;28;20059;-37
2021/11/10 02:15:31;;;;;;;4.85;3.45;;;;;;;8.86;55.62;101694.44;5050397;28;20025;-37
2021/11/10 02:17:57;;;;;;;4.72;3.35;;;;;;;8.91;55.11;101684.25;5050050;28;20036;-37
2021/11/10 02:20:24;;;;;;;5.40;3.60;;;;;;;9.04;55.28;101696.34;5049014;28;20040;-38
2021/11/10 02:22:52;;;;;;;4.93;3.55;;;;;;;8.92;55.58;101685.06;5050225;28;20025;-38
2021/11/10 02:25:18;;;;;;;5.25;3.90;;;;;;;8.83;55.81;101692.06;5050569;28;20029;-38
2021/11/10 02:27:44;;;;;;;9.27;4.00;;;;;;;8.82;55.57;101692.25;5050139;28;20033;-38
2021/11/10 02:30:14;;;;;;;3.90;3.20;;;;;;;8.84;55.36;101693.75;5050613;28;20032;-37
2021/11/10 02:32:40;;;;;;;27.83;5.00;;;;;;;9.00;55.13;101695.78;5049867;28;20040;-37
2021/11/10 02:35:05;;;;;;;6.13;3.70;;;;;;;8.80;55.20;101701.16;5049837;28;20069;-37
2021/11/10 02:37:31;;;;;;;7.18;3.88;;;;;;;8.89;55.00;101702.13;5049895;28;20025;-37
2021/11/10 02:39:56;;;;;;;4.85;3.40;;;;;;;8.83;55.39;101709.81;5049647;28;20025;-37
2021/11/10 02:42:22;;;;;;;6.53;4.10;;;;;;;9.03;54.57;101703.47;5049798;28;20021;-37
2021/11/10 02:44:52;;;;;;;5.20;3.65;;;;;;;8.89;55.64;101707.44;5048692;28;20449;-38
2021/11/10 02:47:17;;;;;;;;;;;;;;;8.75;55.11;101706.06;5050449;28;20028;-38
2021/11/10 02:49:44;;;;;;;6.05;3.97;;;;;;;8.83;55.12;101707.16;5049821;28;19920;-37
2021/11/10 02:52:11;;;;;;;5.60;3.50;;;;;;;8.83;55.27;101708.00;5048902;28;20120;-37
2021/11/10 02:54:41;;;;;;;4.40;3.25;;;;;;;8.75;54.95;101707.88;5050263;28;20032;-36
2021/11/10 02:57:07;;;;;;;5.80;3.70;;;;;;;8.68;55.44;101712.09;5049818;28;20053;-37
2021/11/10 02:59:32;;;;;;;4.60;3.47;;;;;;;8.64;54.87;101719.50;5049763;28;20029;-36
2021/11/10 03:01:58;;;;;;;4.25;3.40;;;;;;;8.87;54.48;101711.22;5049802;28;20397;-37
2021/11/10 03:04:31;;;;;;;5.57;3.75;;;;;;;9.04;54.06;101710.44;5049839;28;20112;-37
2021/11/10 03:06:57;;;;;;;5.75;3.90;;;;;;;8.89;54.44;101702.13;5053463;28;20072;-37
2021/11/10 03:09:24;;;;;;;5.55;3.67;;;;;;;8.73;54.99;101708.03;5053668;28;20128;-37
2021/11/10 03:11:54;;;;;;;5.53;3.78;;;;;;;8.74;54.69;101708.88;5053787;28;20375;-37
2021/11/10 03:14:20;;;;;;;5.55;4.13;;;;;;;8.83;54.06;101704.50;5032630;28;20034;-38
2021/11/10 03:16:45;;;;;;;6.65;3.90;;;;;;;8.86;53.97;101705.06;5033483;28;20030;-37
2021/11/10 03:19:11;;;;;;;5.95;3.83;;;;;;;8.77;53.93;101711.25;5033379;28;20026;-37
2021/11/10 03:21:37;;;;;;;5.20;3.60;;;;;;;8.80;53.63;101711.78;5015516;28;20030;-37
2021/11/10 03:24:02;;;;;;;5.22;3.58;;;;;;;8.87;53.62;101712.06;5033327;28;20061;-38
2021/11/10 03:26:28;;;;;;;6.20;3.42;;;;;;;8.70;54.03;101705.69;5033241;28;20029;-38
2021/11/10 03:28:53;;;;;;;5.32;3.53;;;;;;;8.52;55.22;101707.38;5033155;28;20045;-38
2021/11/10 03:31:19;;;;;;;5.40;3.88;;;;;;;8.39;56.13;101708.47;5037567;28;20063;-38
2021/11/10 03:33:44;;;;;;;6.00;3.92;;;;;;;8.49;56.38;101711.16;5053094;28;20444;-38
2021/11/10 03:36:10;;;;;;;4.55;3.53;;;;;;;8.36;56.29;101715.91;5052930;28;20029;-37
2021/11/10 03:38:35;;;;;;;7.03;4.20;;;;;;;8.01;58.37;101715.47;5053022;28;20055;-37
2021/11/10 03:41:01;;;;;;;5.70;4.10;;;;;;;7.88;59.45;101711.41;5053103;28;20441;-36
2021/11/10 03:43:26;;;;;;;5.63;4.25;;;;;;;7.57;60.22;101687.63;5051738;28;20036;-37
2021/11/10 03:45:52;;;;;;;7.32;4.47;;;;;;;7.69;61.48;101720.16;5052901;28;20029;-37
2021/11/10 03:48:17;;;;;;;5.55;4.38;;;;;;;7.81;60.68;101709.31;5052607;28;20025;-37
2021/11/10 03:50:43;;;;;;;10.95;4.65;;;;;;;7.72;61.81;101712.78;5052976;28;20037;-37
2021/11/10 03:53:09;;;;;;;7.50;4.60;;;;;;;7.49;63.41;101703.38;5052688;28;20114;-36
2021/11/10 03:55:35;;;;;;;6.97;4.55;;;;;;;7.43;64.19;101712.72;5052624;28;20029;-36
2021/11/10 03:58:02;;;;;;;6.88;4.97;;;;;;;7.35;64.48;101723.97;5052803;28;20039;-37
2021/11/10 04:00:27;;;;;;;8.90;4.82;;;;;;;7.16;65.99;101708.84;5052437;28;20025;-36
2021/11/10 04:02:53;;;;;;;7.93;5.05;;;;;;;7.30;65.71;101714.75;5052738;28;20036;-36
2021/11/10 04:05:18;;;;;;;7.47;4.97;;;;;;;6.97;67.26;101719.34;5052500;28;20033;-37
2021/11/10 04:07:45;;;;;;;7.18;4.97;;;;;;;7.13;67.42;101722.34;5052544;28;20142;-48
2021/11/10 04:10:11;;;;;;;7.97;5.18;;;;;;;7.19;67.07;101735.03;5052505;28;20064;-51
2021/11/10 04:12:37;;;;;;;9.90;5.63;;;;;;;7.30;67.41;101723.53;5052225;28;20476;-50
2021/11/10 04:15:03;;;;;;;8.93;5.50;;;;;;;7.26;67.66;101729.25;5052287;28;20170;-48
2021/11/10 04:17:28;;;;;;;9.57;6.22;;;;;;;7.35;67.58;101721.34;5052239;28;20558;-48
2021/11/10 04:19:54;;;;;;;13.82;6.10;;;;;;;7.21;68.24;101719.03;5052167;28;20097;-48
2021/11/10 04:22:20;;;;;;;10.48;5.93;;;;;;;7.27;68.63;101725.59;5052086;28;20112;-49
2021/11/10 04:24:46;;;;;;;8.90;5.38;;;;;;;7.56;67.56;101723.06;5052035;28;20552;-48
2021/11/10 04:27:12;;;;;;;10.10;6.00;;;;;;;7.22;68.39;101726.03;5051694;28;20111;-49
2021/11/10 04:29:38;;;;;;;9.50;6.00;;;;;;;7.59;67.55;101725.44;5051655;28;20047;-50
2021/11/10 04:32:04;;;;;;;9.48;5.53;;;;;;;7.47;68.18;101734.47;5051692;28;20033;-49
2021/11/10 04:34:29;;;;;;;11.98;5.65;;;;;;;7.19;68.71;101729.75;5051846;28;20099;-50
2021/11/10 04:36:55;;;;;;;11.73;5.10;;;;;;;6.74;69.69;101731.88;5051723;28;20047;-50
2021/11/10 04:39:20;;;;;;;7.03;4.85;;;;;;;6.79;70.14;101727.88;5052146;28;20134;-48
2021/11/10 04:41:46;;;;;;;10.13;4.97;;;;;;;6.70;69.88;101725.19;5051685;28;20041;-49
2021/11/10 04:44:11;;;;;;;11.02;5.72;;;;;;;6.78;69.68;101723.56;5051488;28;20388;-47
2021/11/10 04:46:37;;;;;;;13.10;6.20;;;;;;;7.12;68.81;101736.56;5051685;28;20058;-48
2021/11/10 04:49:04;;;;;;;9.88;5.65;;;;;;;7.11;68.78;101740.19;5051462;28;20102;-48
2021/11/10 04:51:29;;;;;;;9.18;5.40;;;;;;;7.09;68.58;101736.81;5051601;28;20427;-50
2021/11/10 04:53:57;;;;;;;14.40;5.20;;;;;;;7.04;69.10;101734.59;5051426;28;20024;-47
2021/11/10 04:56:22;;;;;;;8.38;4.95;;;;;;;6.83;69.32;101726.66;5050657;28;20037;-48
2021/11/10 04:58:48;;;;;;;7.95;4.75;;;;;;;6.97;69.00;101738.72;5050523;28;20032;-50
2021/11/10 05:01:26;;;;;;;10.43;5.18;;;;;;;6.90;69.01;101739.38;5050415;28;20035;-51
2021/11/10 05:03:52;;;;;;;9.45;5.15;;;;;;;7.23;68.17;101733.84;5050760;28;20043;-49
2021/11/10 05:06:19;;;;;;;12.77;5.40;;;;;;;7.13;68.76;101750.63;5050821;28;20433;-49
2021/11/10 05:08:45;;;;;;;7.55;5.20;;;;;;;7.21;68.51;101742.88;5050275;28;20025;-48
2021/11/10 05:11:10;;;;;;;8.23;5.38;;;;;;;7.10;68.05;101742.94;5050445;28;20059;-47
2021/11/10 05:13:36;;;;;;;7.75;5.13;;;;;;;6.66;69.77;101743.13;5050270;28;20040;-48
2021/11/10 05:16:01;;;;;;;9.00;4.97;;;;;;;6.72;69.70;101749.69;5049826;28;20036;-49
2021/11/10 05:18:27;;;;;;;9.43;5.30;;;;;;;6.90;69.27;101752.63;5050385;28;20055;-48
2021/11/10 05:20:52;;;;;;;6.72;4.88;;;;;;;6.91;69.18;101752.50;5048919;28;20033;-48
2021/11/10 05:23:18;;;;;;;6.38;4.40;;;;;;;6.78;71.23;101693.63;5050413;28;20036;-48
2021/11/10 05:25:43;;;;;;;7.75;5.00;;;;;;;7.48;68.47;101762.63;5049977;28;20057;-50
2021/11/10 05:28:08;;;;;;;6.15;4.45;;;;;;;7.56;67.61;101754.88;5049251;28;20033;-49
2021/11/10 05:30:36;;;;;;;9.52;5.07;;;;;;;7.90;69.70;101762.47;5033151;28;20067;-50
2021/11/10 05:33:03;;;;;;;11.65;5.13;;;;;;;7.81;66.77;101772.91;5046618;28;20032;-49
2021/11/10 05:35:28;;;;;;;7.65;5.10;;;;;;;7.98;66.16;101776.72;5042772;28;20048;-49
2021/11/10 05:37:54;;;;;;;11.68;5.22;;;;;;;7.92;66.33;101771.13;5033378;28;20033;-49
2021/11/10 05:40:19;;;;;;;10.75;5.30;;;;;;;8.11;65.89;101779.13;5029457;28;20029;-51
2021/11/10 05:42:45;;;;;;;8.82;5.60;;;;;;;8.66;63.94;101775.94;5029877;28;20124;-50
2021/11/10 05:45:10;;;;;;;11.82;6.15;;;;;;;8.45;63.37;101776.09;5029349;28;20055;-51
2021/11/10 05:47:36;;;;;;;10.23;5.55;;;;;;;8.46;63.90;101774.28;5028882;28;20405;-47
2021/11/10 05:50:06;;;;;;;9.98;5.25;;;;;;;8.84;63.32;101781.38;5028963;28;20031;-47
2021/11/10 05:52:32;;;;;;;11.32;5.22;;;;;;;8.90;62.58;101785.28;5046164;28;20032;-48
2021/11/10 05:54:57;;;;;;;12.05;5.03;;;;;;;9.11;61.72;101785.91;5047324;28;20044;-48
2021/11/10 05:57:23;;;;;;;8.07;5.10;;;;;;;8.89;62.13;101789.75;5047293;28;20416;-47
2021/11/10 05:59:49;;;;;;;10.63;5.30;;;;;;;8.50;62.77;101783.66;5047035;28;20017;-47
2021/11/10 06:02:15;;;;;;;9.90;5.80;;;;;;;8.39;63.29;101793.38;5047970;28;20039;-47
2021/11/10 06:04:40;;;;;;;9.82;5.07;;;;;;;8.09;64.86;101796.13;5047732;28;20029;-38
2021/11/10 06:07:06;;;;;;;11.48;5.47;;;;;;;8.22;64.91;101802.88;5030585;28;20481;-37
2021/11/10 06:09:31;;;;;;;20.33;8.57;;;;;;;8.80;63.82;101796.75;5049253;28;20104;-38
2021/11/10 06:11:57;;;;;;;15.57;8.50;;;;;;;8.91;62.82;101790.44;5048585;28;20385;-37
2021/11/10 06:14:23;;;;;;;11.43;7.53;;;;;;;8.94;62.46;101792.81;5047470;28;20017;-38
2021/11/10 06:16:49;;;;;;;14.07;7.78;;;;;;;9.58;60.56;101793.03;5049059;28;20049;-38
2021/11/10 06:19:15;;;;;;;12.13;7.32;;;;;;;9.63;60.76;101793.41;5048991;28;20031;-37
2021/11/10 06:21:40;;;;;;;14.48;7.35;;;;;;;9.91;60.62;101810.22;5049475;28;20439;-38
2021/11/10 06:24:06;;;;;;;23.02;11.50;;;;;;;10.01;63.73;101791.53;5049184;28;20526;-41
2021/11/10 06:26:31;;;;;;;12.70;7.90;;;;;;;10.30;58.57;101804.69;5049300;28;20641;-38
2021/11/10 06:28:57;;;;;;;14.75;7.63;;;;;;;10.24;60.03;101785.78;5049123;28;20142;-38
2021/11/10 06:31:22;;;;;;;12.52;7.57;;;;;;;10.83;56.97;101805.63;5049334;28;20021;-38
2021/11/10 06:33:49;;;;;;;13.60;8.13;;;;;;;10.63;56.86;101812.97;5049606;28;20450;-38
2021/11/10 06:36:14;;;;;;;15.57;7.78;;;;;;;10.28;57.54;101805.75;5050019;28;20392;-38
2021/11/10 06:38:42;;;;;;;15.38;7.88;;;;;;;10.38;57.75;101806.59;5049508;28;20025;-38
2021/11/10 06:41:07;;;;;;;11.65;6.88;;;;;;;10.71;55.85;101809.53;5051801;28;20427;-38
2021/11/10 06:43:35;;;;;;;28.15;17.35;;;;;;;10.67;57.16;101813.50;5053719;28;20460;-38
2021/11/10 06:46:01;;;;;;;14.40;8.60;;;;;;;11.39;55.89;101816.00;5053328;28;20029;-38
2021/11/10 06:48:26;;;;;;;10.38;6.10;;;;;;;11.61;54.19;101815.41;5053615;28;20021;-37
2021/11/10 06:50:52;;;;;;;9.93;6.10;;;;;;;11.38;54.16;101782.31;5053099;28;20025;-38
2021/11/10 06:53:17;;;;;;;7.97;5.47;;;;;;;11.28;54.43;101817.91;5051914;28;20054;-38
2021/11/10 06:55:43;;;;;;;8.50;5.40;;;;;;;11.37;54.60;101821.47;5053454;28;20457;-39
2021/11/10 06:58:08;;;;;;;7.72;5.60;;;;;;;11.27;55.46;101818.94;5053441;28;20051;-39
2021/11/10 07:00:34;;;;;;;7.97;5.10;;;;;;;11.23;54.70;101820.25;5053114;28;20412;-38
2021/11/10 07:02:59;;;;;;;9.98;4.80;;;;;;;11.40;53.09;101822.97;5053157;28;20477;-38
2021/11/10 07:05:25;;;;;;;8.20;5.38;;;;;;;11.23;54.52;101812.25;5052695;28;20021;-38
2021/11/10 07:07:50;;;;;;;6.90;4.93;;;;;;;11.50;54.14;101824.56;5052534;28;20473;-38
2021/11/10 07:10:16;;;;;;;10.18;5.47;;;;;;;11.47;53.77;101834.69;5052687;28;20032;-39
2021/11/10 07:12:42;;;;;;;7.25;4.72;;;;;;;11.38;53.56;101830.31;5052729;28;20178;-38
2021/11/10 07:15:08;;;;;;;7.32;5.05;;;;;;;11.46;53.47;101822.34;5052809;28;20021;-39
2021/11/10 07:17:33;;;;;;;9.18;4.82;;;;;;;11.76;52.91;101826.31;5052516;28;20052;-38
2021/11/10 07:19:59;;;;;;;8.65;5.00;;;;;;;12.13;52.20;101830.50;5052289;28;20400;-39
2021/11/10 07:22:24;;;;;;;6.00;4.57;;;;;;;11.88;51.44;101838.38;5052083;28;20044;-38
2021/11/10 07:24:50;;;;;;;8.45;5.10;;;;;;;11.92;51.58;101833.59;5052105;28;20108;-39
2021/11/10 07:27:15;;;;;;;11.55;5.20;;;;;;;12.23;51.37;101841.03;5051080;28;20477;-38
2021/11/10 07:29:41;;;;;;;8.20;5.18;;;;;;;12.41;51.69;101833.69;5052080;28;20028;-38
2021/11/10 07:32:07;;;;;;;9.82;4.93;;;;;;;12.64;50.91;101833.91;5052129;28;20393;-38
2021/11/10 07:34:33;;;;;;;11.60;5.15;;;;;;;12.65;50.26;101826.72;5051551;28;20114;-39
2021/11/10 07:36:58;;;;;;;9.00;5.15;;;;;;;12.99;49.13;101836.41;5050731;28;20103;-39
2021/11/10 07:39:25;;;;;;;11.57;6.78;;;;;;;13.34;48.54;101823.69;5050962;28;20033;-38
2021/11/10 07:41:51;;;;;;;13.10;6.10;;;;;;;13.48;47.84;101828.34;5050881;28;20025;-38
2021/11/10 07:44:17;;;;;;;10.50;6.47;;;;;;;13.51;47.96;101833.31;5050707;28;20024;-39
2021/11/10 07:46:51;;;;;;;10.35;5.90;;;;;;;13.00;48.88;101846.09;5050788;28;20432;-38
2021/11/10 07:49:20;;;;;;;8.95;6.05;;;;;;;13.27;49.72;101834.22;5050591;28;20025;-38
2021/11/10 07:51:46;;;;;;;7.10;5.55;;;;;;;13.30;48.85;101817.84;5048985;28;20040;-38
2021/11/10 07:54:12;;;;;;;9.32;5.45;;;;;;;14.03;47.35;101837.28;5050283;28;20076;-38
2021/11/10 07:56:37;;;;;;;7.57;4.78;;;;;;;13.81;46.28;101834.38;5050349;28;20021;-38
2021/11/10 07:59:03;;;;;;;6.55;4.47;;;;;;;13.75;47.87;101837.75;5050526;28;20342;-38
2021/11/10 08:01:28;;;;;;;8.80;4.90;;;;;;;13.78;47.27;101839.25;5050532;28;20142;-39
2021/11/10 08:03:54;;;;;;;5.72;4.20;;;;;;;13.16;47.72;101837.25;5050632;28;20384;-38
2021/11/10 08:06:19;;;;;;;5.93;4.22;;;;;;;13.22;47.17;101844.56;5050806;28;20116;-38
2021/11/10 08:08:45;;;;;;;8.98;4.20;;;;;;;13.26;47.72;101829.84;5050465;28;20021;-38
2021/11/10 08:11:10;;;;;;;4.97;3.38;;;;;;;12.71;47.24;101836.75;5050335;28;20029;-38
2021/11/10 08:13:36;;;;;;;6.15;3.58;;;;;;;12.86;47.28;101847.59;5050312;28;20025;-39
2021/11/10 08:16:01;;;;;;;7.60;3.78;;;;;;;12.86;47.27;101844.94;5050500;28;20047;-39
2021/11/10 08:18:27;;;;;;;3.85;3.00;;;;;;;12.51;46.05;101842.41;5049918;28;20057;-38
2021/11/10 08:20:53;;;;;;;3.30;2.67;;;;;;;12.01;47.07;101845.94;5050221;28;20028;-39
2021/11/10 08:23:20;;;;;;;5.68;3.45;;;;;;;12.47;47.57;101846.41;5050505;28;20028;-38
2021/11/10 08:25:47;;;;;;;4.25;3.17;;;;;;;13.01;45.54;101840.56;5050145;28;20113;-38
2021/11/10 08:28:12;;;;;;;4.57;3.45;;;;;;;12.79;45.90;101839.41;5050135;28;20048;-38
2021/11/10 08:30:38;;;;;;;5.10;3.10;;;;;;;12.71;46.86;101844.75;5048289;28;20118;-38
2021/11/10 08:33:03;;;;;;;7.85;3.50;;;;;;;12.90;46.56;101848.94;5049624;28;20037;-38
2021/11/10 08:35:29;;;;;;;4.38;3.45;;;;;;;13.15;46.25;101833.72;5009140;28;1192060;-38
2021/11/10 08:37:56;;;;;;;7.70;4.22;;;;;;;12.83;47.00;101842.59;5051172;28;20535;-37
2021/11/10 08:40:21;;;;;;;6.97;4.15;;;;;;;12.73;47.27;101861.44;5051407;28;20110;-38
2021/11/10 08:42:47;;;;;;;6.18;4.22;;;;;;;12.06;48.25;101854.31;5051000;28;20450;-38
2021/11/10 08:45:15;;;;;;;5.53;4.25;;;;;;;12.06;48.19;101818.78;5051053;28;20036;-38
2021/11/10 08:47:42;;;;;;;7.53;4.28;;;;;;;12.18;48.82;101849.50;5049240;28;20110;-37
2021/11/10 08:50:08;;;;;;;6.93;4.57;;;;;;;12.06;50.46;101845.47;5049887;28;20499;-38
2021/11/10 08:52:35;;;;;;;6.53;4.40;;;;;;;12.54;48.96;101835.06;5050192;28;20035;-38
2021/11/10 08:55:01;;;;;;;6.50;4.55;;;;;;;13.13;47.41;101849.09;5050138;28;20029;-37
2021/11/10 08:57:26;;;;;;;8.27;4.50;;;;;;;12.23;50.02;101860.53;5048401;28;20039;-38
2021/11/10 08:59:51;;;;;;;7.25;4.78;;;;;;;12.36;48.78;101846.72;5050183;28;20467;-37
2021/11/10 09:02:17;;;;;;;6.22;4.43;;;;;;;12.44;48.87;101843.22;5050392;28;20025;-38
2021/11/10 09:04:42;;;;;;;6.18;4.40;;;;;;;12.81;47.69;101840.09;5049973;28;20033;-38
2021/11/10 09:07:08;;;;;;;5.97;4.43;;;;;;;12.82;48.16;101838.25;5050597;28;20029;-38
2021/11/10 09:09:34;;;;;;;7.20;4.68;;;;;;;12.93;49.11;101831.72;5050204;28;20037;-36
2021/11/10 09:11:59;;;;;;;4.68;4.03;;;;;;;13.18;47.03;101828.03;5050586;28;20029;-37
2021/11/10 09:14:25;;;;;;;5.25;3.88;;;;;;;13.15;46.89;101828.34;5050681;28;20436;-37
2021/11/10 09:16:50;;;;;;;6.88;3.83;;;;;;;13.09;46.67;101826.38;5050164;28;20080;-38
2021/11/10 09:19:16;;;;;;;4.85;3.80;;;;;;;12.51;47.90;101812.22;5050011;28;20085;-39
2021/11/10 09:21:42;;;;;;;7.30;4.40;;;;;;;12.39;47.89;101817.00;5050579;28;20029;-39
2021/11/10 09:24:08;;;;;;;4.57;3.47;;;;;;;12.65;48.40;101816.88;5050278;28;20024;-38
2021/11/10 09:26:35;;;;;;;4.97;4.00;;;;;;;13.27;46.31;101810.97;5050240;28;20116;-39
2021/11/10 09:29:00;;;;;;;4.80;4.07;;;;;;;13.15;46.67;101806.16;5050069;28;20060;-39
2021/11/10 09:31:26;;;;;;;6.40;4.50;;;;;;;13.36;46.67;101797.59;5050131;28;20465;-38
2021/11/10 09:33:57;;;;;;;6.75;4.25;;;;;;;13.20;47.15;101795.78;5050249;28;20061;-39
2021/11/10 09:36:22;;;;;;;5.03;3.90;;;;;;;13.29;47.75;101808.97;5050265;28;20060;-36
2021/11/10 09:38:48;;;;;;;6.35;3.95;;;;;;;12.79;47.74;101796.66;5050147;28;20059;-38
2021/11/10 09:41:13;;;;;;;6.57;4.32;;;;;;;12.52;48.52;101792.50;5050179;28;20025;-38
2021/11/10 09:43:40;;;;;;;8.52;4.30;;;;;;;12.66;48.25;101788.31;5048541;28;20035;-39
2021/11/10 09:46:06;;;;;;;5.45;4.07;;;;;;;12.55;48.75;101772.66;5049715;28;20033;-39
2021/11/10 09:48:32;;;;;;;7.07;4.53;;;;;;;12.72;48.50;101774.31;5050003;28;20190;-39
2021/11/10 09:50:57;;;;;;;4.80;3.80;;;;;;;12.67;48.30;101773.97;5049939;28;20031;-38
2021/11/10 09:53:23;;;;;;;4.45;3.35;;;;;;;12.11;48.73;101777.28;5049546;28;20028;-38
2021/11/10 09:55:49;;;;;;;4.60;3.50;;;;;;;12.09;48.50;101755.25;5049575;28;20515;-38
2021/11/10 09:58:14;;;;;;;6.13;3.80;;;;;;;12.65;47.69;101758.09;5050096;28;20036;-38
2021/11/10 10:00:55;;;;;;;5.97;3.78;;;;;;;13.20;46.91;101753.84;5049611;28;20036;-38
2021/11/10 10:03:20;;;;;;;5.18;3.90;;;;;;;13.38;46.24;101752.81;5049372;28;20104;-38
2021/11/10 10:05:46;;;;;;;4.38;3.22;;;;;;;13.11;45.53;101754.88;5049610;28;20502;-38
2021/11/10 10:08:12;;;;;;;5.97;3.90;;;;;;;12.67;46.12;101747.25;5049288;28;20029;-38
2021/11/10 10:10:40;;;;;;;4.40;3.50;;;;;;;12.75;46.87;101738.41;5047620;28;20047;-38
2021/11/10 10:13:06;;;;;;;5.78;3.78;;;;;;;13.02;46.49;101737.19;5049562;28;20048;-38
2021/11/10 10:15:32;;;;;;;5.70;3.90;;;;;;;13.06;45.76;101754.53;5049407;28;20032;-38
2021/11/10 10:17:58;;;;;;;5.25;3.88;;;;;;;12.91;45.69;101738.38;5049468;28;20032;-37
2021/11/10 10:20:37;;;;;;;5.50;3.60;;;;;;;12.81;45.74;101724.38;5049373;28;20043;-37
2021/11/10 10:23:10;;;;;;;4.80;3.40;;;;;;;13.15;45.30;101715.25;5049222;28;20405;-38
2021/11/10 10:25:43;;;;;;;4.50;3.50;;;;;;;13.07;45.56;101706.25;5049676;28;20126;-38
2021/11/10 10:28:11;;;;;;;5.15;3.20;;;;;;;13.71;44.45;101696.47;5049494;28;20048;-39
2021/11/10 10:30:40;;;;;;;4.72;3.22;;;;;;;13.98;42.87;101697.81;5049216;28;20025;-38
2021/11/10 10:33:16;;;;;;;7.60;3.47;;;;;;;13.79;42.40;101685.72;5049427;28;20555;-38
2021/11/10 10:35:47;;;;;;;5.28;3.75;;;;;;;13.59;43.40;101685.34;5047776;28;20405;-38
2021/11/10 10:38:18;;;;;;;5.13;2.97;;;;;;;13.22;41.89;101690.34;5049074;28;20028;-38
2021/11/10 10:40:45;;;;;;;4.95;2.95;;;;;;;13.05;41.25;101691.41;5048832;28;20032;-38
2021/11/10 10:43:11;;;;;;;5.07;3.42;;;;;;;13.29;42.42;101675.28;5049331;28;20029;-37
2021/11/10 10:45:40;;;;;;;4.20;2.80;;;;;;;13.45;41.30;101669.03;5049133;28;20085;-38
2021/11/10 10:48:20;;;;;;;4.85;2.55;;;;;;;13.84;39.57;101669.94;5048983;28;20112;-38
2021/11/10 10:50:48;;;;;;;4.50;2.60;;;;;;;13.63;39.62;101671.44;5049112;28;20437;-38
2021/11/10 10:53:35;;;;;;;3.67;2.50;;;;;;;13.28;40.35;101656.72;5048950;28;20044;-38
2021/11/10 10:56:12;;;;;;;3.80;2.50;;;;;;;13.11;39.27;101656.78;5047491;28;20025;-38
2021/11/10 10:58:38;;;;;;;3.03;2.10;;;;;;;13.25;39.29;101660.59;5064561;28;20085;-39
2021/11/10 11:01:24;;;;;;;2.80;1.90;;;;;;;13.65;36.88;101647.16;5052079;28;20045;-39
2021/11/10 11:03:57;;;;;;;2.97;2.10;;;;;;;13.28;38.29;101640.69;5061664;28;20140;-39
2021/11/10 11:06:24;;;;;;;6.45;2.60;;;;;;;12.97;39.81;101646.00;5060394;28;20122;-38
2021/11/10 11:08:50;;;;;;;3.70;2.22;;;;;;;13.80;38.54;101633.88;5052970;28;20033;-39
2021/11/10 11:11:21;;;;;;;2.90;1.98;;;;;;;13.64;37.92;101634.81;5065857;28;20035;-37
2021/11/10 11:13:49;;;;;;;3.83;2.35;;;;;;;13.48;37.42;101630.41;5054550;28;20047;-38
2021/11/10 11:16:18;;;;;;;2.47;1.80;;;;;;;12.69;37.62;101630.41;5058276;28;20036;-37
2021/11/10 11:18:43;;;;;;;2.00;1.80;;;;;;;12.54;37.94;101658.81;5048693;28;20047;-38
2021/11/10 11:21:22;;;;;;;2.65;2.00;;;;;;;12.69;37.71;101617.88;5065395;28;20488;-37
2021/11/10 11:23:47;;;;;;;5.10;1.67;;;;;;;12.48;37.87;101625.59;5055607;28;20013;-38
2021/11/10 11:26:32;;;;;;;4.13;2.00;;;;;;;12.49;38.28;101625.44;5058856;28;20148;-38